Time;durP1;ratioP1;P1;durP2;ratioP2;P2;SDS_P1;SDS_P2;PMS_P1;PMS_P2;Temp;Humidity;BMP_temperature;BMP_pressure;BME280_temperature;BME280_humidity;BME280_pressure;Samples;Min_cycle;Max_cycle;Signal;HPM_P1;HPM_P2
2023/10/25 00:00:54;;;;;;;30.37;27.27;;;10.20;99.90;;;;;;5056952;28;20895;-71
2023/10/25 00:03:23;;;;;;;29.80;27.00;;;10.20;99.90;;;;;;5057369;28;20928;-70
2023/10/25 00:05:53;;;;;;;29.83;26.40;;;10.10;99.90;;;;;;5057661;28;20430;-71
2023/10/25 00:08:21;;;;;;;29.23;26.37;;;10.10;99.90;;;;;;5055998;28;20524;-71
2023/10/25 00:10:49;;;;;;;28.67;25.60;;;10.10;99.90;;;;;;5056514;28;20537;-70
2023/10/25 00:13:17;;;;;;;27.47;24.70;;;10.10;99.90;;;;;;5056262;28;20450;-71
2023/10/25 00:15:45;;;;;;;29.43;26.33;;;10.10;99.90;;;;;;5056010;28;20916;-70
2023/10/25 00:18:13;;;;;;;29.07;26.17;;;10.10;99.90;;;;;;5056407;28;20454;-71
2023/10/25 00:20:41;;;;;;;29.20;26.30;;;10.10;99.90;;;;;;5055595;28;20434;-71
2023/10/25 00:23:11;;;;;;;28.37;25.53;;;10.10;99.90;;;;;;5055407;28;20441;-71
2023/10/25 00:25:39;;;;;;;29.17;26.23;;;10.10;99.90;;;;;;5056234;28;20434;-71
2023/10/25 00:28:07;;;;;;;29.57;26.47;;;10.00;99.90;;;;;;5054784;28;20568;-70
2023/10/25 00:30:35;;;;;;;30.07;27.10;;;10.00;99.90;;;;;;5054131;28;20442;-70
2023/10/25 00:33:04;;;;;;;30.73;27.73;;;10.00;99.90;;;;;;5054191;28;20847;-70
2023/10/25 00:35:32;;;;;;;30.60;27.40;;;10.00;99.90;;;;;;5053901;28;20524;-70
2023/10/25 00:38:01;;;;;;;29.57;26.57;;;10.00;99.90;;;;;;5037150;28;20512;-70
2023/10/25 00:40:30;;;;;;;29.90;27.00;;;10.00;99.90;;;;;;5055605;28;20505;-70
2023/10/25 00:43:13;;;;;;;30.17;27.03;;;10.00;99.90;;;;;;5053790;28;20477;-70
2023/10/25 00:46:01;;;;;;;31.77;28.43;;;10.00;99.90;;;;;;5055150;28;20428;-71
2023/10/25 00:48:30;;;;;;;29.60;26.67;;;9.90;99.90;;;;;;5035616;28;20575;-71
2023/10/25 00:51:00;;;;;;;29.80;26.80;;;10.00;99.90;;;;;;5036956;28;20446;-70
2023/10/25 00:53:32;;;;;;;31.00;27.73;;;9.90;99.90;;;;;;5054819;28;20942;-71
2023/10/25 00:56:02;;;;;;;29.13;26.13;;;9.90;99.90;;;;;;5055221;28;20438;-71
2023/10/25 00:58:31;;;;;;;30.27;27.17;;;9.90;99.90;;;;;;5053315;28;20458;-71
2023/10/25 01:01:01;;;;;;;30.03;27.03;;;9.90;99.90;;;;;;5053310;28;20450;-70
2023/10/25 01:03:29;;;;;;;29.77;26.67;;;9.90;99.90;;;;;;5036633;28;20532;-70
2023/10/25 01:05:58;;;;;;;30.13;27.03;;;9.90;99.90;;;;;;5053260;28;20446;-71
2023/10/25 01:08:26;;;;;;;30.43;27.20;;;9.90;99.90;;;;;;5036401;28;20474;-70
2023/10/25 01:10:54;;;;;;;28.60;25.70;;;9.90;99.90;;;;;;5053199;28;20446;-70
2023/10/25 01:13:24;;;;;;;31.20;27.83;;;9.90;99.90;;;;;;5036469;28;20511;-71
2023/10/25 01:15:52;;;;;;;30.23;26.97;;;9.90;99.90;;;;;;5053083;28;20513;-71
2023/10/25 01:18:20;;;;;;;30.97;27.77;;;9.90;99.90;;;;;;5054173;28;20464;-70
2023/10/25 01:20:48;;;;;;;30.00;26.93;;;9.90;99.90;;;;;;5054873;28;20794;-71
2023/10/25 01:23:18;;;;;;;29.20;26.10;;;9.90;99.90;;;;;;5052880;28;20469;-71
2023/10/25 01:25:46;;;;;;;30.67;27.57;;;9.90;99.90;;;;;;5052900;28;20446;-71
2023/10/25 01:28:14;;;;;;;29.23;26.33;;;9.90;99.90;;;;;;5053962;28;20480;-71
2023/10/25 01:30:42;;;;;;;28.60;25.80;;;9.80;99.90;;;;;;5054057;28;20517;-71
2023/10/25 01:33:11;;;;;;;30.20;27.10;;;9.80;99.90;;;;;;5054253;28;20832;-71
2023/10/25 01:35:39;;;;;;;30.67;27.57;;;9.80;99.90;;;;;;5053827;28;20450;-71
2023/10/25 01:38:07;;;;;;;29.40;26.30;;;9.80;99.90;;;;;;5053665;28;20541;-71
2023/10/25 01:40:37;;;;;;;30.37;25.70;;;9.80;99.90;;;;;;5052743;28;20492;-71
2023/10/25 01:43:05;;;;;;;27.97;25.27;;;9.80;99.90;;;;;;5054414;28;20422;-71
2023/10/25 01:45:34;;;;;;;27.17;24.37;;;9.80;99.90;;;;;;5052525;28;20442;-71
2023/10/25 01:48:02;;;;;;;28.90;26.07;;;9.80;99.90;;;;;;5052281;28;20501;-70
2023/10/25 01:50:30;;;;;;;27.87;25.03;;;9.80;99.90;;;;;;5035852;28;20454;-71
2023/10/25 01:52:58;;;;;;;27.83;24.90;;;9.70;99.90;;;;;;5053751;28;20442;-71
2023/10/25 01:55:26;;;;;;;30.63;26.47;;;9.80;99.90;;;;;;5052392;28;20448;-71
2023/10/25 01:57:56;;;;;;;27.13;24.53;;;9.80;99.90;;;;;;5053695;28;20942;-71
2023/10/25 02:00:24;;;;;;;30.03;25.00;;;9.70;99.90;;;;;;5035714;28;20943;-71
2023/10/25 02:02:52;;;;;;;27.33;24.60;;;9.70;99.90;;;;;;5053813;28;20457;-71
2023/10/25 02:05:20;;;;;;;28.10;24.40;;;9.70;99.90;;;;;;5052139;28;20450;-69
2023/10/25 02:07:48;;;;;;;30.07;26.17;;;9.70;99.90;;;;;;5035420;28;20583;-71
2023/10/25 02:10:18;;;;;;;29.30;26.37;;;9.70;99.90;;;;;;5053433;28;20509;-71
2023/10/25 02:12:47;;;;;;;28.13;25.03;;;9.60;99.90;;;;;;5052130;28;20504;-71
2023/10/25 02:15:17;;;;;;;28.00;24.90;;;9.60;99.90;;;;;;5053617;28;21024;-71
2023/10/25 02:17:45;;;;;;;28.60;24.00;;;9.60;99.90;;;;;;5053245;28;20564;-71
2023/10/25 02:20:14;;;;;;;27.80;25.00;;;9.60;99.90;;;;;;5053585;28;20435;-71
2023/10/25 02:22:42;;;;;;;27.23;24.30;;;9.60;99.90;;;;;;5035458;28;20446;-71
2023/10/25 02:25:10;;;;;;;28.90;25.80;;;9.60;99.90;;;;;;5053182;28;20458;-71
2023/10/25 02:27:38;;;;;;;28.47;25.60;;;9.60;99.90;;;;;;5051859;28;20494;-71
2023/10/25 02:30:07;;;;;;;26.57;23.87;;;9.60;99.90;;;;;;5053425;28;20800;-71
2023/10/25 02:32:37;;;;;;;28.13;25.13;;;9.60;99.90;;;;;;5035370;28;20944;-71
2023/10/25 02:35:06;;;;;;;26.90;24.03;;;9.60;99.90;;;;;;5051754;28;20876;-71
2023/10/25 02:37:34;;;;;;;27.27;24.37;;;9.50;99.90;;;;;;5053450;28;20450;-71
2023/10/25 02:40:02;;;;;;;26.90;24.10;;;9.50;99.90;;;;;;5051846;28;20811;-71
2023/10/25 02:42:31;;;;;;;29.27;23.60;;;9.50;99.90;;;;;;5051851;28;20452;-71
2023/10/25 02:44:59;;;;;;;26.53;23.20;;;9.50;99.90;;;;;;5051815;28;20484;-71
2023/10/25 02:47:27;;;;;;;25.83;23.30;;;9.50;99.90;;;;;;5052995;28;20462;-71
2023/10/25 02:49:57;;;;;;;25.90;23.20;;;9.50;99.90;;;;;;5036050;28;20476;-71
2023/10/25 02:52:25;;;;;;;27.57;23.67;;;9.50;99.90;;;;;;5057341;28;20531;-71
2023/10/25 02:54:55;;;;;;;26.90;24.00;;;9.50;99.90;;;;;;5055790;28;20488;-71
2023/10/25 02:57:23;;;;;;;25.17;22.60;;;9.50;99.90;;;;;;5039065;28;20877;-71
2023/10/25 02:59:52;;;;;;;26.70;23.63;;;9.50;99.90;;;;;;5055710;28;20438;-71
2023/10/25 03:02:20;;;;;;;25.33;22.27;;;9.50;99.90;;;;;;5057153;28;20975;-71
2023/10/25 03:04:49;;;;;;;27.30;24.37;;;9.40;99.90;;;;;;5057385;28;20469;-70
2023/10/25 03:07:18;;;;;;;25.93;23.13;;;9.40;99.90;;;;;;5055595;28;20465;-71
2023/10/25 03:09:46;;;;;;;26.00;23.20;;;9.40;99.90;;;;;;5055325;28;20470;-71
2023/10/25 03:12:14;;;;;;;25.50;22.90;;;9.40;99.90;;;;;;5055475;28;20962;-71
2023/10/25 03:14:42;;;;;;;27.10;23.90;;;9.40;99.90;;;;;;5056897;28;20434;-71
2023/10/25 03:17:10;;;;;;;27.80;23.93;;;9.40;99.90;;;;;;5055263;28;20902;-71
2023/10/25 03:19:38;;;;;;;26.67;24.07;;;9.40;99.90;;;;;;5055359;28;20871;-71
2023/10/25 03:22:07;;;;;;;28.03;25.17;;;9.40;99.90;;;;;;5055386;28;20452;-71
2023/10/25 03:24:36;;;;;;;27.10;24.40;;;9.40;99.90;;;;;;5055226;28;20499;-71
2023/10/25 03:27:07;;;;;;;28.10;25.07;;;9.30;99.90;;;;;;5056259;28;20525;-71
2023/10/25 03:29:37;;;;;;;26.57;23.77;;;9.30;99.90;;;;;;5055090;28;20470;-71
2023/10/25 03:32:05;;;;;;;29.23;26.23;;;9.30;99.90;;;;;;5038441;28;20441;-71
2023/10/25 03:34:33;;;;;;;28.07;25.27;;;9.30;99.90;;;;;;5056534;28;20438;-71
2023/10/25 03:37:01;;;;;;;26.77;24.10;;;9.30;99.90;;;;;;5038187;28;20449;-71
2023/10/25 03:39:30;;;;;;;27.13;24.50;;;9.30;99.90;;;;;;5056187;28;20438;-71
2023/10/25 03:42:00;;;;;;;31.47;26.10;;;9.20;99.90;;;;;;5056108;28;20939;-71
2023/10/25 03:44:30;;;;;;;28.83;25.93;;;9.30;99.90;;;;;;5054886;28;20464;-71
2023/10/25 03:46:59;;;;;;;28.93;25.73;;;9.20;99.90;;;;;;5055988;28;20473;-71
2023/10/25 03:49:27;;;;;;;28.60;25.63;;;9.20;99.90;;;;;;5054681;28;20536;-71
2023/10/25 03:51:55;;;;;;;28.93;25.80;;;9.20;99.90;;;;;;5055086;28;20780;-70
2023/10/25 03:54:23;;;;;;;26.90;24.10;;;9.20;99.90;;;;;;5054750;28;20947;-71
2023/10/25 03:56:51;;;;;;;27.30;24.60;;;9.20;99.90;;;;;;5054531;28;20525;-71
2023/10/25 03:59:20;;;;;;;28.40;24.60;;;9.20;99.90;;;;;;5055851;28;20430;-71
2023/10/25 04:01:48;;;;;;;27.00;24.30;;;9.20;99.90;;;;;;5054797;28;20517;-71
2023/10/25 04:04:17;;;;;;;27.93;25.03;;;9.20;99.90;;;;;;5055681;28;20441;-71
2023/10/25 04:06:45;;;;;;;28.23;25.40;;;9.20;99.90;;;;;;5055920;28;20996;-71
2023/10/25 04:09:13;;;;;;;32.57;26.77;;;9.10;99.90;;;;;;5055836;28;20873;-71
2023/10/25 04:11:41;;;;;;;27.63;24.47;;;9.20;99.90;;;;;;5054379;28;20438;-71
2023/10/25 04:14:09;;;;;;;26.40;23.70;;;9.20;99.90;;;;;;5055541;28;20563;-71
2023/10/25 04:16:38;;;;;;;27.97;24.90;;;9.10;99.90;;;;;;5055505;28;20469;-71
2023/10/25 04:19:06;;;;;;;28.37;25.37;;;9.10;99.90;;;;;;5055669;28;20822;-71
2023/10/25 04:21:35;;;;;;;29.33;26.33;;;9.10;99.90;;;;;;5055282;28;20438;-71
2023/10/25 04:24:03;;;;;;;26.77;23.93;;;9.10;99.90;;;;;;5055322;28;20442;-71
2023/10/25 04:26:31;;;;;;;25.53;22.90;;;9.10;99.90;;;;;;5055552;28;20520;-71
2023/10/25 04:28:59;;;;;;;28.00;25.10;;;9.10;99.90;;;;;;5037287;28;21067;-71
2023/10/25 04:31:27;;;;;;;28.50;25.50;;;9.10;99.90;;;;;;5055272;28;20846;-71
2023/10/25 04:33:59;;;;;;;27.17;24.37;;;9.10;99.90;;;;;;5055504;28;20472;-71
2023/10/25 04:36:27;;;;;;;27.27;24.57;;;9.00;99.90;;;;;;5055164;28;20884;-71
2023/10/25 04:38:55;;;;;;;29.30;26.47;;;9.10;99.90;;;;;;5055564;28;20457;-71
2023/10/25 04:41:23;;;;;;;28.83;25.83;;;9.00;99.90;;;;;;5055301;28;20438;-71
2023/10/25 04:43:51;;;;;;;27.90;25.10;;;9.00;99.90;;;;;;5055035;28;20525;-71
2023/10/25 04:46:19;;;;;;;29.37;26.07;;;9.10;99.90;;;;;;5054968;28;20431;-71
2023/10/25 04:48:47;;;;;;;27.17;24.60;;;9.00;99.90;;;;;;5054757;28;20996;-71
2023/10/25 04:51:17;;;;;;;29.60;26.40;;;9.00;99.90;;;;;;5054705;28;20549;-71
2023/10/25 04:53:46;;;;;;;27.93;25.00;;;9.00;99.90;;;;;;5054831;28;20804;-71
2023/10/25 04:56:14;;;;;;;29.67;26.60;;;9.00;99.90;;;;;;5054761;28;20442;-71
2023/10/25 04:58:42;;;;;;;29.67;26.87;;;9.00;99.90;;;;;;5054836;28;20454;-71
2023/10/25 05:01:13;;;;;;;28.70;25.40;;;9.00;99.90;;;;;;5054618;28;20438;-71
2023/10/25 05:03:43;;;;;;;29.17;25.97;;;9.00;99.90;;;;;;5054568;28;20445;-71
2023/10/25 05:06:12;;;;;;;30.47;26.30;;;9.00;99.90;;;;;;5055071;28;20434;-71
2023/10/25 05:08:42;;;;;;;30.43;27.20;;;9.00;99.90;;;;;;5054453;28;20449;-71
2023/10/25 05:11:15;;;;;;;28.93;25.87;;;9.00;99.90;;;;;;5036653;28;20461;-71
2023/10/25 05:13:44;;;;;;;28.27;25.10;;;9.00;99.90;;;;;;5054775;28;20451;-71
2023/10/25 05:16:13;;;;;;;29.37;26.50;;;8.90;99.90;;;;;;5054381;28;20481;-71
2023/10/25 05:18:41;;;;;;;29.10;26.30;;;8.90;99.90;;;;;;5054252;28;20450;-71
2023/10/25 05:21:16;;;;;;;28.93;26.17;;;8.90;99.90;;;;;;5054560;28;20460;-71
2023/10/25 05:23:47;;;;;;;29.10;26.03;;;8.90;99.90;;;;;;5054210;28;20422;-71
2023/10/25 05:26:15;;;;;;;28.60;25.57;;;8.90;99.90;;;;;;5054493;28;20422;-71
2023/10/25 05:28:44;;;;;;;29.77;26.77;;;8.90;99.90;;;;;;5052759;28;20469;-71
2023/10/25 05:31:18;;;;;;;29.53;26.43;;;8.90;99.90;;;;;;5053958;28;20539;-71
2023/10/25 05:33:46;;;;;;;28.27;25.37;;;8.90;99.90;;;;;;5036137;28;20449;-71
2023/10/25 05:36:16;;;;;;;31.53;26.10;;;8.90;99.90;;;;;;5035937;28;20468;-71
2023/10/25 05:38:46;;;;;;;29.87;25.43;;;8.90;99.90;;;;;;5053844;28;20493;-71
2023/10/25 05:41:19;;;;;;;29.27;26.37;;;8.90;99.90;;;;;;5053866;28;20450;-71
2023/10/25 05:43:58;;;;;;;30.77;27.67;;;8.90;99.90;;;;;;5036080;28;20438;-71
2023/10/25 05:46:26;;;;;;;29.30;26.30;;;8.90;99.90;;;;;;5054047;28;20422;-70
2023/10/25 05:48:55;;;;;;;27.40;24.63;;;8.80;99.90;;;;;;5053634;28;20465;-71
2023/10/25 05:51:23;;;;;;;28.50;25.80;;;8.80;99.90;;;;;;5053940;28;20593;-71
2023/10/25 05:53:54;;;;;;;27.93;24.97;;;8.80;99.90;;;;;;5054090;28;20438;-71
2023/10/25 05:56:25;;;;;;;27.67;24.80;;;8.80;99.90;;;;;;5054470;28;20934;-71
2023/10/25 05:58:54;;;;;;;27.87;24.93;;;8.80;99.90;;;;;;5053821;28;20457;-71
2023/10/25 06:01:32;;;;;;;28.70;25.90;;;8.80;99.90;;;;;;5053488;28;20430;-71
2023/10/25 06:04:02;;;;;;;29.27;26.33;;;8.80;99.90;;;;;;5053714;28;20507;-71
2023/10/25 06:06:32;;;;;;;28.50;25.60;;;8.70;99.90;;;;;;5053554;28;20445;-71
2023/10/25 06:09:02;;;;;;;26.70;24.10;;;8.70;99.90;;;;;;5053410;28;21048;-71
2023/10/25 06:11:31;;;;;;;27.00;24.20;;;8.80;99.90;;;;;;5053293;28;20481;-70
2023/10/25 06:13:59;;;;;;;26.70;24.03;;;8.80;99.90;;;;;;5053389;28;20451;-71
2023/10/25 06:16:27;;;;;;;27.23;24.17;;;8.80;99.90;;;;;;5052052;28;20548;-71
2023/10/25 06:18:58;;;;;;;26.87;24.17;;;8.70;99.90;;;;;;5053319;28;20477;-71
2023/10/25 06:21:27;;;;;;;26.37;23.87;;;8.70;99.90;;;;;;5053165;28;20480;-71
2023/10/25 06:23:55;;;;;;;27.33;24.53;;;8.70;99.90;;;;;;5053417;28;20475;-71
2023/10/25 06:26:24;;;;;;;25.73;23.03;;;8.70;99.90;;;;;;5053106;28;20537;-71
2023/10/25 06:28:52;;;;;;;26.67;24.00;;;8.70;99.90;;;;;;5053476;28;20538;-71
2023/10/25 06:31:20;;;;;;;26.87;23.17;;;8.70;99.90;;;;;;5035337;28;20478;-71
2023/10/25 06:33:49;;;;;;;26.30;23.80;;;8.70;99.90;;;;;;5053731;28;20430;-71
2023/10/25 06:36:17;;;;;;;24.83;21.43;;;8.70;99.90;;;;;;5053124;28;20524;-71
2023/10/25 06:38:46;;;;;;;24.60;22.20;;;8.70;99.90;;;;;;5053063;28;20463;-71
2023/10/25 06:41:16;;;;;;;25.10;22.40;;;8.70;99.90;;;;;;5053121;28;20452;-71
2023/10/25 06:43:46;;;;;;;27.17;24.53;;;8.70;99.90;;;;;;5053329;28;20535;-71
2023/10/25 06:46:15;;;;;;;30.30;25.20;;;8.70;99.90;;;;;;5055130;28;20426;-71
2023/10/25 06:48:44;;;;;;;29.77;26.57;;;8.70;99.90;;;;;;5055540;28;20975;-71
2023/10/25 06:51:13;;;;;;;29.83;26.63;;;8.70;99.90;;;;;;5055777;28;20488;-71
2023/10/25 06:53:42;;;;;;;28.57;25.57;;;8.70;99.90;;;;;;5055874;28;20429;-71
2023/10/25 06:56:11;;;;;;;29.83;26.73;;;8.70;99.90;;;;;;5038188;28;20460;-71
2023/10/25 06:58:40;;;;;;;29.37;25.60;;;8.70;99.90;;;;;;5055607;28;20558;-71
2023/10/25 07:01:12;;;;;;;27.23;24.43;;;8.70;99.90;;;;;;5037865;28;20517;-71
2023/10/25 07:03:46;;;;;;;24.97;22.40;;;8.70;99.90;;;;;;5056417;28;20440;-71
2023/10/25 07:06:16;;;;;;;26.40;23.60;;;8.70;99.90;;;;;;5056334;28;20474;-71
2023/10/25 07:08:46;;;;;;;26.80;24.07;;;8.70;99.90;;;;;;5056456;28;20615;-71
2023/10/25 07:11:14;;;;;;;24.20;21.60;;;8.70;99.90;;;;;;5052986;28;21104;-71
2023/10/25 07:13:42;;;;;;;24.00;21.60;;;8.70;99.90;;;;;;5053913;28;20469;-71
2023/10/25 07:16:12;;;;;;;22.83;20.63;;;8.70;99.90;;;;;;5054330;28;20495;-71
2023/10/25 07:18:40;;;;;;;25.13;22.63;;;8.70;99.90;;;;;;5053677;28;20493;-71
2023/10/25 07:21:09;;;;;;;31.97;28.47;;;8.70;99.90;;;;;;5054206;28;20462;-71
2023/10/25 07:23:37;;;;;;;21.50;19.40;;;8.70;99.90;;;;;;5053608;28;20437;-71
2023/10/25 07:26:06;;;;;;;20.00;18.10;;;8.80;99.90;;;;;;5053799;28;20442;-71
2023/10/25 07:28:34;;;;;;;23.20;20.87;;;8.80;99.90;;;;;;5053402;28;20454;-71
2023/10/25 07:31:02;;;;;;;23.33;20.93;;;8.80;99.90;;;;;;5053895;28;20804;-70
2023/10/25 07:33:32;;;;;;;21.80;19.63;;;8.80;99.90;;;;;;5053748;28;21004;-71
2023/10/25 07:36:00;;;;;;;20.13;18.07;;;8.80;99.90;;;;;;5055031;28;20453;-71
2023/10/25 07:38:28;;;;;;;20.63;18.43;;;8.80;99.90;;;;;;5057693;28;21041;-70
2023/10/25 07:40:56;;;;;;;19.33;17.33;;;8.80;99.90;;;;;;5057522;28;20536;-71
2023/10/25 07:43:24;;;;;;;20.43;18.33;;;8.80;99.90;;;;;;5057871;28;20484;-71
2023/10/25 07:45:52;;;;;;;19.30;17.43;;;8.90;99.90;;;;;;5058269;28;20430;-71
2023/10/25 07:48:23;;;;;;;18.27;16.57;;;8.90;99.90;;;;;;5058439;28;20450;-71
2023/10/25 07:50:53;;;;;;;17.03;15.43;;;8.90;99.90;;;;;;5058639;28;20438;-71
2023/10/25 07:53:22;;;;;;;19.23;17.33;;;8.90;99.90;;;;;;5058673;28;20495;-71
2023/10/25 07:55:50;;;;;;;23.10;20.80;;;9.00;99.90;;;;;;5059020;28;20434;-71
2023/10/25 07:58:22;;;;;;;19.03;16.33;;;9.00;99.90;;;;;;5058955;28;21049;-71
2023/10/25 08:00:55;;;;;;;16.70;14.93;;;9.10;99.90;;;;;;5041119;28;20846;-71
2023/10/25 08:03:24;;;;;;;17.57;15.77;;;9.10;99.90;;;;;;5059718;28;20445;-71
2023/10/25 08:05:54;;;;;;;17.50;15.30;;;9.10;99.90;;;;;;5060077;28;20430;-71
2023/10/25 08:08:22;;;;;;;23.83;16.63;;;9.20;99.90;;;;;;5059620;28;20790;-71
2023/10/25 08:10:59;;;;;;;17.57;15.77;;;9.20;99.90;;;;;;5059850;28;20449;-71
2023/10/25 08:13:28;;;;;;;16.17;14.60;;;9.30;99.90;;;;;;5060450;28;20422;-71
2023/10/25 08:15:59;;;;;;;15.80;14.23;;;9.30;99.90;;;;;;5060007;28;20875;-71
2023/10/25 08:18:28;;;;;;;17.33;15.00;;;9.30;99.90;;;;;;5059819;28;20565;-71
2023/10/25 08:20:59;;;;;;;15.67;14.20;;;9.40;99.90;;;;;;5060352;28;20469;-71
2023/10/25 08:23:29;;;;;;;14.97;13.47;;;9.50;99.90;;;;;;5060454;28;20422;-71
2023/10/25 08:26:00;;;;;;;15.10;13.27;;;9.50;99.90;;;;;;5060076;28;20469;-71
2023/10/25 08:28:28;;;;;;;15.13;13.50;;;9.60;99.90;;;;;;5059893;28;20828;-71
2023/10/25 08:30:57;;;;;;;14.87;13.43;;;9.60;99.90;;;;;;5060280;28;20812;-71
2023/10/25 08:33:25;;;;;;;16.20;14.23;;;9.70;99.90;;;;;;5060540;28;20466;-71
2023/10/25 08:36:02;;;;;;;13.50;12.23;;;9.70;99.90;;;;;;5060640;28;20458;-71
2023/10/25 08:38:30;;;;;;;16.60;12.43;;;9.80;99.90;;;;;;5060633;28;20501;-70
2023/10/25 08:41:03;;;;;;;13.60;12.20;;;9.80;99.90;;;;;;5060947;28;20464;-71
2023/10/25 08:43:33;;;;;;;13.93;12.57;;;9.90;99.90;;;;;;5068086;28;20494;-70
2023/10/25 08:46:03;;;;;;;13.67;12.30;;;9.90;99.90;;;;;;5062457;28;20442;-70
2023/10/25 08:48:32;;;;;;;13.37;11.97;;;9.90;99.90;;;;;;5056929;28;20546;-71
2023/10/25 08:51:03;;;;;;;15.40;13.90;;;10.00;99.90;;;;;;5056762;28;20567;-70
2023/10/25 08:53:31;;;;;;;14.43;12.90;;;10.00;99.90;;;;;;5056877;28;20514;-71
2023/10/25 08:55:59;;;;;;;14.97;13.47;;;10.00;99.90;;;;;;5056867;28;20449;-70
2023/10/25 08:58:28;;;;;;;13.27;12.07;;;10.00;99.90;;;;;;5038970;28;20538;-71
2023/10/25 09:00:56;;;;;;;13.10;11.90;;;10.10;99.90;;;;;;5056629;28;20438;-71
2023/10/25 09:03:43;;;;;;;13.53;12.03;;;10.10;99.90;;;;;;5056636;28;20430;-70
2023/10/25 09:06:23;;;;;;;12.73;11.47;;;10.10;99.90;;;;;;5056869;28;20421;-71
2023/10/25 09:09:02;;;;;;;14.40;13.00;;;10.20;99.90;;;;;;5056670;28;20457;-71
2023/10/25 09:11:39;;;;;;;17.13;11.97;;;10.20;99.90;;;;;;5056152;28;20835;-71
2023/10/25 09:14:09;;;;;;;14.50;13.10;;;10.20;99.90;;;;;;5056288;28;20826;-71
2023/10/25 09:16:41;;;;;;;13.47;12.03;;;10.30;99.90;;;;;;5056348;28;20446;-71
2023/10/25 09:19:09;;;;;;;14.50;13.20;;;10.30;99.90;;;;;;5056155;28;20550;-71
2023/10/25 09:21:38;;;;;;;16.27;14.67;;;10.40;99.90;;;;;;5056474;28;20536;-70
2023/10/25 09:24:09;;;;;;;18.37;15.13;;;10.40;99.90;;;;;;5056180;28;20510;-71
2023/10/25 09:26:40;;;;;;;13.70;12.30;;;10.50;99.90;;;;;;5055875;28;20426;-70
2023/10/25 09:29:11;;;;;;;13.47;11.80;;;10.60;99.90;;;;;;5055592;28;20544;-70
2023/10/25 09:31:39;;;;;;;12.67;11.23;;;10.60;99.90;;;;;;5056539;28;20418;-70
2023/10/25 09:34:11;;;;;;;12.10;10.90;;;10.70;99.90;;;;;;5056087;28;20813;-71
2023/10/25 09:36:41;;;;;;;11.77;10.60;;;10.70;99.90;;;;;;5056163;28;20453;-71
2023/10/25 09:39:09;;;;;;;13.47;11.90;;;10.80;99.90;;;;;;5055153;28;20544;-69
2023/10/25 09:41:39;;;;;;;12.97;10.90;;;10.80;99.90;;;;;;5054341;28;20819;-69
2023/10/25 09:44:18;;;;;;;15.00;12.77;;;10.80;99.90;;;;;;5055512;28;20501;-70
2023/10/25 09:46:47;;;;;;;12.53;11.23;;;10.90;99.90;;;;;;5053862;28;20477;-70
2023/10/25 09:49:16;;;;;;;12.63;11.10;;;10.90;99.90;;;;;;5055094;28;20434;-70
2023/10/25 09:52:05;;;;;;;9.20;8.30;;;11.00;99.90;;;;;;5037332;28;20480;-70
2023/10/25 09:54:35;;;;;;;10.60;9.70;;;11.00;99.90;;;;;;5055289;28;20476;-70
2023/10/25 09:57:04;;;;;;;10.60;9.70;;;11.00;99.90;;;;;;5055087;28;20530;-70
2023/10/25 09:59:33;;;;;;;9.90;9.00;;;11.10;99.90;;;;;;5055081;28;20443;-70
2023/10/25 10:02:02;;;;;;;12.03;9.00;;;11.10;99.90;;;;;;5054020;28;20450;-70
2023/10/25 10:04:42;;;;;;;10.67;9.40;;;11.20;99.90;;;;;;5054908;28;20441;-70
2023/10/25 10:07:19;;;;;;;13.43;10.10;;;11.20;99.90;;;;;;5055470;28;20871;-70
2023/10/25 10:09:55;;;;;;;9.70;8.70;;;11.30;99.90;;;;;;5054423;28;20432;-70
2023/10/25 10:12:23;;;;;;;10.03;8.87;;;11.40;99.90;;;;;;5054876;28;20195;-70
2023/10/25 10:14:52;;;;;;;15.90;14.30;;;11.50;99.90;;;;;;5054977;28;20434;-70
2023/10/25 10:17:20;;;;;;;10.20;9.30;;;11.60;99.90;;;;;;5037402;28;20470;-71
2023/10/25 10:19:50;;;;;;;9.27;8.30;;;11.70;99.90;;;;;;5055015;28;20466;-70
2023/10/25 10:22:20;;;;;;;12.97;8.27;;;11.70;99.90;;;;;;5037723;28;20552;-71
2023/10/25 10:24:49;;;;;;;11.00;8.20;;;11.80;99.90;;;;;;5055135;28;20516;-70
2023/10/25 10:27:18;;;;;;;10.50;7.77;;;11.90;99.90;;;;;;5054759;28;20803;-70
2023/10/25 10:29:47;;;;;;;8.03;7.10;;;11.90;99.90;;;;;;5054752;28;20955;-70
2023/10/25 10:32:16;;;;;;;7.27;6.53;;;12.00;99.90;;;;;;5036999;28;20862;-70
2023/10/25 10:34:47;;;;;;;6.90;6.20;;;12.10;99.90;;;;;;5054713;28;20532;-70
2023/10/25 10:37:16;;;;;;;7.23;6.40;;;12.10;99.90;;;;;;5036190;28;20564;-70
2023/10/25 10:40:14;;;;;;;6.77;6.00;;;12.20;99.90;;;;;;5055199;28;20437;-70
2023/10/25 10:42:43;;;;;;;7.03;5.60;;;12.30;99.90;;;;;;5047114;28;20828;-70
2023/10/25 10:45:14;;;;;;;7.17;6.57;;;12.40;99.90;;;;;;5036790;28;20499;-70
2023/10/25 10:47:44;;;;;;;9.77;6.97;;;12.40;99.90;;;;;;5053639;28;20454;-70
2023/10/25 10:50:15;;;;;;;8.33;5.53;;;12.50;99.90;;;;;;5054019;28;20827;-71
2023/10/25 10:52:45;;;;;;;8.33;5.97;;;12.50;99.90;;;;;;5053644;28;20486;-70
2023/10/25 10:55:16;;;;;;;7.57;5.80;;;12.60;99.90;;;;;;5036284;28;20517;-70
2023/10/25 10:57:45;;;;;;;7.07;5.17;;;12.70;99.90;;;;;;5054220;28;20963;-70
2023/10/25 11:00:33;;;;;;;6.20;5.60;;;12.70;99.90;;;;;;5054231;28;20430;-70
2023/10/25 11:03:02;;;;;;;6.07;5.20;;;12.80;99.90;;;;;;5054208;28;20438;-70
2023/10/25 11:05:36;;;;;;;5.87;5.27;;;12.80;99.90;;;;;;5054399;28;20424;-71
2023/10/25 11:08:09;;;;;;;5.93;5.27;;;12.80;99.90;;;;;;5054245;28;21000;-70
2023/10/25 11:10:39;;;;;;;6.60;5.53;;;12.90;99.90;;;;;;5054827;28;20428;-71
2023/10/25 11:13:08;;;;;;;8.13;5.00;;;12.90;99.90;;;;;;5058559;28;21053;-70
2023/10/25 11:15:36;;;;;;;6.20;5.63;;;12.90;99.90;;;;;;5059110;28;20868;-71
2023/10/25 11:18:07;;;;;;;5.40;4.90;;;12.90;99.90;;;;;;5059201;28;20505;-70
2023/10/25 11:20:36;;;;;;;5.70;5.17;;;12.90;99.90;;;;;;5059496;28;20422;-70
2023/10/25 11:23:04;;;;;;;12.53;5.77;;;12.90;99.90;;;;;;5059725;28;20430;-70
2023/10/25 11:25:32;;;;;;;5.40;4.90;;;12.90;99.90;;;;;;5057634;28;20779;-70
2023/10/25 11:28:04;;;;;;;5.47;4.97;;;13.00;99.90;;;;;;5057063;28;20485;-70
2023/10/25 11:30:34;;;;;;;6.43;5.00;;;13.00;99.90;;;;;;5057533;28;20509;-70
2023/10/25 11:33:04;;;;;;;9.27;5.80;;;13.10;99.90;;;;;;5039577;28;20434;-70
2023/10/25 11:35:35;;;;;;;7.83;5.50;;;13.10;99.90;;;;;;5057302;28;20433;-71
2023/10/25 11:38:05;;;;;;;7.10;5.80;;;13.20;99.90;;;;;;5058012;28;20549;-70
2023/10/25 11:40:39;;;;;;;9.47;6.20;;;13.20;99.90;;;;;;5057735;28;20538;-70
2023/10/25 11:43:09;;;;;;;10.93;6.90;;;13.30;99.90;;;;;;5039429;28;20943;-70
2023/10/25 11:45:38;;;;;;;7.07;6.33;;;13.30;99.90;;;;;;5057534;28;20437;-70
2023/10/25 11:48:07;;;;;;;7.90;6.40;;;13.30;99.90;;;;;;5057364;28;20458;-71
2023/10/25 11:50:36;;;;;;;7.40;5.83;;;13.30;99.90;;;;;;5057608;28;20495;-70
2023/10/25 11:53:04;;;;;;;7.33;6.33;;;13.40;99.90;;;;;;5057385;28;20438;-70
2023/10/25 11:55:32;;;;;;;6.70;5.90;;;13.40;99.90;;;;;;5057939;28;20434;-70
2023/10/25 11:58:01;;;;;;;8.37;5.27;;;13.40;99.90;;;;;;5057594;28;20469;-70
2023/10/25 12:00:31;;;;;;;8.73;6.07;;;13.40;99.90;;;;;;5039364;28;20453;-71
2023/10/25 12:02:59;;;;;;;6.63;5.93;;;13.50;99.90;;;;;;5057596;28;20533;-70
2023/10/25 12:05:27;;;;;;;11.07;9.03;;;13.50;99.90;;;;;;5039414;28;20450;-71
2023/10/25 12:07:55;;;;;;;9.90;6.70;;;13.50;99.90;;;;;;5057126;28;20461;-70
2023/10/25 12:10:27;;;;;;;6.57;5.63;;;13.50;99.90;;;;;;5057507;28;20943;-71
2023/10/25 12:12:56;;;;;;;8.30;5.50;;;13.50;99.90;;;;;;5057991;28;20781;-71
2023/10/25 12:15:24;;;;;;;6.03;5.27;;;13.50;99.90;;;;;;5039450;28;20470;-70
2023/10/25 12:17:54;;;;;;;5.90;5.40;;;13.50;99.90;;;;;;5057236;28;20515;-71
2023/10/25 12:20:22;;;;;;;7.30;5.10;;;13.50;99.90;;;;;;5057625;28;20438;-70
2023/10/25 12:22:56;;;;;;;6.30;5.07;;;13.50;99.90;;;;;;5056981;28;20418;-70
2023/10/25 12:25:25;;;;;;;6.03;5.10;;;13.50;99.90;;;;;;5057472;28;20443;-70
2023/10/25 12:27:53;;;;;;;6.40;5.50;;;13.50;99.90;;;;;;5039677;28;20962;-69
2023/10/25 12:30:22;;;;;;;8.93;6.13;;;13.50;99.90;;;;;;5058030;28;20529;-70
2023/10/25 12:32:52;;;;;;;7.93;5.83;;;13.50;99.90;;;;;;5040100;28;20456;-70
2023/10/25 12:35:22;;;;;;;6.97;6.27;;;13.50;99.90;;;;;;5039661;28;21034;-70
2023/10/25 12:37:50;;;;;;;6.43;5.17;;;13.50;99.90;;;;;;5057734;28;20493;-70
2023/10/25 12:40:18;;;;;;;7.67;6.87;;;13.50;99.90;;;;;;5057720;28;20466;-70
2023/10/25 12:42:48;;;;;;;12.40;8.90;;;13.50;99.90;;;;;;5057623;28;20442;-70
2023/10/25 12:45:19;;;;;;;9.07;8.17;;;13.50;99.90;;;;;;5057218;28;20419;-70
2023/10/25 12:47:47;;;;;;;10.87;7.60;;;13.50;99.90;;;;;;5057553;28;20456;-70
2023/10/25 12:50:16;;;;;;;13.17;8.30;;;13.60;99.90;;;;;;5057308;28;20878;-70